createdAt,value
2022-10-11T00:00:34.492Z,3.63
2022-10-11T00:03:03.300Z,3.80
2022-10-11T00:05:31.369Z,3.87
2022-10-11T00:07:59.641Z,3.60
2022-10-11T00:10:27.906Z,3.97
2022-10-11T00:12:55.894Z,3.37
2022-10-11T00:15:24.222Z,3.50
2022-10-11T00:17:53.609Z,4.97
2022-10-11T00:20:21.853Z,3.20
2022-10-11T00:22:50.260Z,3.30
2022-10-11T00:25:19.172Z,3.30
2022-10-11T00:27:47.260Z,4.17
2022-10-11T00:30:15.393Z,3.77
2022-10-11T00:32:43.368Z,5.13
2022-10-11T00:35:12.772Z,3.30
2022-10-11T00:37:40.856Z,3.20
2022-10-11T00:40:14.165Z,3.10
2022-10-11T00:42:42.251Z,3.67
2022-10-11T00:46:01.007Z,3.43
2022-10-11T00:48:34.261Z,2.97
2022-10-11T00:51:11.683Z,3.40
2022-10-11T00:53:39.801Z,3.23
2022-10-11T00:56:13.917Z,3.40
2022-10-11T00:58:43.517Z,3.70
2022-10-11T01:01:11.718Z,3.00
2022-10-11T01:03:41.728Z,2.67
2022-10-11T01:06:11.105Z,3.10
2022-10-11T01:08:40.381Z,2.87
2022-10-11T01:11:12.205Z,3.33
2022-10-11T01:13:48.919Z,3.07
2022-10-11T01:16:23.804Z,3.00
2022-10-11T01:19:01.033Z,3.70
2022-10-11T01:21:39.513Z,2.80
2022-10-11T01:24:29.576Z,2.73
2022-10-11T01:27:30.395Z,3.27
2022-10-11T01:30:08.408Z,3.63
2022-10-11T01:32:44.631Z,3.50
2022-10-11T01:35:18.617Z,3.87
2022-10-11T01:37:55.029Z,3.10
2022-10-11T01:40:27.928Z,2.90
2022-10-11T01:42:58.342Z,3.43
2022-10-11T01:45:26.610Z,3.13
2022-10-11T01:48:06.168Z,3.50
2022-10-11T01:50:42.249Z,3.17
2022-10-11T01:53:30.911Z,2.87
2022-10-11T01:56:07.152Z,3.40
2022-10-11T01:58:46.509Z,3.17
2022-10-11T02:01:26.247Z,3.40
2022-10-11T02:04:02.945Z,3.47
2022-10-11T02:06:37.917Z,3.60
2022-10-11T02:09:13.535Z,3.10
2022-10-11T02:11:42.066Z,3.30
2022-10-11T02:14:13.920Z,3.47
2022-10-11T02:16:45.318Z,2.73
2022-10-11T02:19:19.342Z,3.60
2022-10-11T02:21:53.419Z,2.80
2022-10-11T02:24:27.367Z,3.17
2022-10-11T02:26:58.384Z,3.67
2022-10-11T02:29:28.761Z,4.03
2022-10-11T02:31:59.572Z,4.73
2022-10-11T02:34:32.898Z,3.13
2022-10-11T02:37:09.822Z,4.33
2022-10-11T02:39:43.961Z,3.70
2022-10-11T02:42:18.420Z,3.63
2022-10-11T02:44:53.443Z,3.10
2022-10-11T02:47:21.745Z,2.67
2022-10-11T02:49:51.457Z,3.63
2022-10-11T02:52:19.461Z,3.67
2022-10-11T02:54:47.440Z,3.33
2022-10-11T02:57:15.444Z,4.10
2022-10-11T02:59:43.434Z,3.97
2022-10-11T03:02:11.581Z,3.53
2022-10-11T03:04:39.561Z,4.23
2022-10-11T03:07:08.919Z,4.93
2022-10-11T03:09:37.145Z,4.87
2022-10-11T03:12:05.472Z,4.90
2022-10-11T03:14:33.466Z,5.63
2022-10-11T03:17:23.714Z,4.57
2022-10-11T03:19:50.025Z,3.77
2022-10-11T03:22:19.446Z,4.30
2022-10-11T03:24:47.510Z,3.57
2022-10-11T03:27:15.530Z,4.13
2022-10-11T03:29:43.529Z,4.23
2022-10-11T03:32:11.700Z,3.53
2022-10-11T03:34:39.681Z,3.93
2022-10-11T03:37:07.787Z,3.73
2022-10-11T03:39:38.501Z,3.40
2022-10-11T03:42:06.703Z,3.80
2022-10-11T03:44:34.717Z,4.60
2022-10-11T03:47:02.764Z,3.90
2022-10-11T03:49:30.705Z,3.80
2022-10-11T03:51:58.745Z,3.90
2022-10-11T03:54:27.462Z,3.73
2022-10-11T03:56:58.190Z,3.40
2022-10-11T03:59:26.304Z,4.10
2022-10-11T04:01:54.518Z,3.70
2022-10-11T04:04:22.592Z,3.53
2022-10-11T04:06:50.675Z,4.50
2022-10-11T04:09:18.689Z,4.23
2022-10-11T04:11:46.700Z,3.97
2022-10-11T04:14:16.153Z,3.97
2022-10-11T04:16:44.172Z,4.10
2022-10-11T04:19:12.369Z,4.90
2022-10-11T04:21:40.383Z,4.00
2022-10-11T04:24:08.767Z,4.47
2022-10-11T04:26:36.994Z,4.20
2022-10-11T04:29:05.600Z,4.10
2022-10-11T04:31:35.077Z,4.00
2022-10-11T04:34:03.095Z,4.43
2022-10-11T04:36:32.891Z,4.13
2022-10-11T04:39:01.815Z,3.93
2022-10-11T04:41:30.267Z,4.20
2022-10-11T04:43:58.555Z,4.20
2022-10-11T04:46:26.784Z,4.13
2022-10-11T04:48:56.353Z,4.87
2022-10-11T04:51:25.008Z,4.10
2022-10-11T04:53:53.017Z,3.93
2022-10-11T04:56:21.308Z,4.83
2022-10-11T04:58:49.499Z,4.43
2022-10-11T05:01:17.534Z,4.30
2022-10-11T05:03:45.545Z,3.73
2022-10-11T05:06:15.115Z,3.83
2022-10-11T05:08:43.130Z,4.00
2022-10-11T05:11:15.763Z,4.10
2022-10-11T05:13:44.964Z,7.53
2022-10-11T05:16:14.241Z,4.77
2022-10-11T05:18:42.696Z,5.20
2022-10-11T05:21:18.447Z,4.37
2022-10-11T05:23:47.786Z,4.70
2022-10-11T05:26:16.066Z,4.87
2022-10-11T05:28:44.479Z,3.90
2022-10-11T05:31:12.739Z,4.20
2022-10-11T05:33:41.074Z,3.90
2022-10-11T05:36:10.189Z,4.20
2022-10-11T05:38:40.022Z,4.03
2022-10-11T05:41:09.306Z,4.43
2022-10-11T05:43:37.545Z,4.37
2022-10-11T05:46:06.520Z,5.13
2022-10-11T05:48:34.974Z,4.80
2022-10-11T05:51:04.008Z,4.50
2022-10-11T05:53:32.236Z,4.23
2022-10-11T05:56:01.972Z,5.77
2022-10-11T05:58:30.118Z,4.83
2022-10-11T06:00:58.426Z,5.30
2022-10-11T06:03:26.471Z,5.03
2022-10-11T06:05:57.005Z,4.27
2022-10-11T06:08:25.466Z,4.70
2022-10-11T06:10:53.541Z,3.77
2022-10-11T06:13:22.923Z,4.30
2022-10-11T06:15:51.020Z,4.40
2022-10-11T06:18:18.977Z,4.43
2022-10-11T06:20:47.019Z,5.10
2022-10-11T06:23:14.998Z,5.27
2022-10-11T06:25:43.043Z,5.33
2022-10-11T06:28:11.077Z,4.65
2022-10-11T06:30:41.177Z,4.50
2022-10-11T06:33:09.224Z,3.80
2022-10-11T06:35:37.220Z,4.63
2022-10-11T06:38:05.238Z,3.95
2022-10-11T06:40:33.230Z,4.60
2022-10-11T06:43:01.233Z,4.80
2022-10-11T06:45:29.272Z,4.85
2022-10-11T06:47:58.633Z,4.22
2022-10-11T06:50:47.531Z,4.70
2022-10-11T06:53:14.643Z,4.07
2022-10-11T06:55:42.691Z,3.67
2022-10-11T06:58:10.718Z,2.97
2022-10-11T07:00:38.682Z,3.95
2022-10-11T07:03:09.307Z,3.88
2022-10-11T07:05:37.370Z,3.90
2022-10-11T07:08:05.827Z,4.07
2022-10-11T07:10:33.823Z,4.28
2022-10-11T07:13:01.795Z,4.05
2022-10-11T07:15:29.790Z,3.67
2022-10-11T07:17:57.797Z,3.40
2022-10-11T07:20:27.258Z,4.07
2022-10-11T07:22:55.236Z,3.80
2022-10-11T07:25:23.248Z,4.93
2022-10-11T07:27:51.235Z,4.82
2022-10-11T07:30:19.694Z,4.10
2022-10-11T07:32:47.614Z,3.70
2022-10-11T07:35:15.711Z,3.67
2022-10-11T07:37:45.091Z,4.78
2022-10-11T07:40:13.188Z,4.85
2022-10-11T07:42:41.201Z,4.47
2022-10-11T07:45:09.824Z,4.45
2022-10-11T07:47:37.813Z,5.15
2022-10-11T07:50:06.712Z,4.13
2022-10-11T07:52:36.477Z,3.92
2022-10-11T07:55:06.684Z,4.38
2022-10-11T07:57:34.710Z,4.75
2022-10-11T08:00:02.975Z,4.28
2022-10-11T08:02:30.938Z,4.93
2022-10-11T08:04:59.292Z,5.90
2022-10-11T08:07:28.193Z,6.05
2022-10-11T08:09:56.190Z,5.43
2022-10-11T08:12:25.521Z,5.80
2022-10-11T08:14:56.133Z,4.93
2022-10-11T08:17:24.908Z,5.53
2022-10-11T08:19:53.398Z,5.60
2022-10-11T08:22:21.516Z,5.40
2022-10-11T08:24:50.702Z,5.13
2022-10-11T08:27:18.732Z,5.35
2022-10-11T08:29:48.156Z,4.97
2022-10-11T08:32:16.187Z,5.40
2022-10-11T08:34:44.215Z,5.38
2022-10-11T08:37:12.228Z,5.22
2022-10-11T08:39:40.698Z,6.05
2022-10-11T08:42:13.370Z,6.32
2022-10-11T08:45:09.679Z,5.97
2022-10-11T08:47:37.593Z,6.47
2022-10-11T08:50:07.385Z,5.55
2022-10-11T08:52:46.049Z,6.40
2022-10-11T08:55:20.230Z,5.63
2022-10-11T08:57:53.525Z,6.13
2022-10-11T09:00:22.269Z,6.03
2022-10-11T09:03:13.947Z,5.35
2022-10-11T09:05:55.009Z,5.80
2022-10-11T09:08:29.895Z,5.60
2022-10-11T09:11:02.423Z,6.25
2022-10-11T09:13:51.895Z,6.57
2022-10-11T09:16:27.940Z,6.43
2022-10-11T09:19:20.625Z,5.38
2022-10-11T09:21:57.545Z,6.05
2022-10-11T09:24:35.663Z,5.93
2022-10-11T09:27:10.687Z,5.50
2022-10-11T09:29:55.376Z,6.45
2022-10-11T09:32:26.055Z,5.07
2022-10-11T09:35:01.031Z,6.18
2022-10-11T09:37:33.700Z,5.25
2022-10-11T09:40:08.235Z,5.03
2022-10-11T09:42:36.250Z,5.13
2022-10-11T09:45:14.403Z,5.20
2022-10-11T09:47:42.637Z,5.05
2022-10-11T09:50:18.668Z,5.53
2022-10-11T09:52:51.060Z,4.57
2022-10-11T09:55:35.647Z,4.75
2022-10-11T09:58:04.693Z,5.40
2022-10-11T10:00:34.524Z,4.38
2022-10-11T10:03:03.990Z,4.70
2022-10-11T10:05:36.692Z,5.18
2022-10-11T10:08:23.009Z,4.90
2022-10-11T10:11:01.062Z,4.28
2022-10-11T10:13:35.863Z,4.78
2022-10-11T10:16:04.487Z,4.57
2022-10-11T10:18:36.743Z,4.45
2022-10-11T10:21:16.020Z,4.07
2022-10-11T10:23:44.631Z,3.17
2022-10-11T10:26:16.646Z,3.40
2022-10-11T10:28:58.085Z,3.13
2022-10-11T10:31:30.615Z,3.22
2022-10-11T10:33:58.878Z,2.75
2022-10-11T10:36:33.781Z,3.17
2022-10-11T10:39:08.142Z,2.97
2022-10-11T10:41:36.279Z,3.38
2022-10-11T10:44:04.540Z,3.15
2022-10-11T10:46:47.098Z,2.55
2022-10-11T10:49:51.914Z,3.17
2022-10-11T10:52:46.686Z,3.45
2022-10-11T10:55:24.565Z,2.15
2022-10-11T10:58:07.088Z,2.50
2022-10-11T11:00:43.205Z,2.78
2022-10-11T11:03:20.055Z,2.78
2022-10-11T11:05:54.401Z,3.15
2022-10-11T11:08:40.382Z,3.10
2022-10-11T11:11:22.858Z,2.42
2022-10-11T11:13:59.015Z,2.40
2022-10-11T11:16:33.801Z,2.28
2022-10-11T11:19:10.225Z,1.95
2022-10-11T11:21:49.294Z,2.75
2022-10-11T11:24:32.767Z,2.92
2022-10-11T11:27:05.919Z,2.83
2022-10-11T11:29:44.351Z,2.90
2022-10-11T11:32:22.367Z,2.42
2022-10-11T11:34:54.903Z,2.53
2022-10-11T11:37:27.624Z,2.25
2022-10-11T11:40:02.223Z,2.15
2022-10-11T11:42:36.653Z,2.25
2022-10-11T11:45:13.268Z,2.85
2022-10-11T11:47:44.726Z,3.05
2022-10-11T11:50:22.528Z,2.38
2022-10-11T11:52:55.127Z,3.17
2022-10-11T11:55:33.329Z,2.60
2022-10-11T11:58:11.442Z,2.75
2022-10-11T12:00:51.893Z,2.50
2022-10-11T12:03:25.529Z,1.85
2022-10-11T12:06:25.671Z,2.47
2022-10-11T12:09:04.168Z,2.22
2022-10-11T12:11:44.539Z,2.22
2022-10-11T12:14:27.611Z,2.45
2022-10-11T12:17:23.531Z,2.40
2022-10-11T12:20:23.790Z,2.15
2022-10-11T12:23:00.198Z,1.95
2022-10-11T12:25:40.855Z,2.38
2022-10-11T12:28:42.018Z,1.92
2022-10-11T12:31:22.215Z,5.20
2022-10-11T12:34:04.005Z,2.38
2022-10-11T12:36:40.376Z,2.10
2022-10-11T12:39:51.709Z,2.60
2022-10-11T12:42:36.192Z,2.13
2022-10-11T12:45:33.155Z,2.40
2022-10-11T12:48:18.498Z,2.05
2022-10-11T12:51:00.759Z,2.33
2022-10-11T12:54:14.384Z,2.30
2022-10-11T12:56:49.130Z,2.60
2022-10-11T12:59:19.572Z,2.00
2022-10-11T13:01:53.371Z,2.88
2022-10-11T13:04:27.102Z,2.22
2022-10-11T13:06:57.253Z,2.45
2022-10-11T13:09:30.851Z,2.35
2022-10-11T13:12:04.114Z,2.40
2022-10-11T13:14:37.260Z,2.58
2022-10-11T13:17:09.211Z,2.95
2022-10-11T13:22:24.079Z,2.58
2022-10-11T13:24:52.124Z,2.78
2022-10-11T13:27:23.971Z,4.05
2022-10-11T13:29:54.155Z,4.60
2022-10-11T13:32:25.202Z,4.00
2022-10-11T13:34:58.377Z,3.05
2022-10-11T13:37:28.255Z,2.30
2022-10-11T13:39:57.371Z,2.95
2022-10-11T13:42:30.698Z,2.40
2022-10-11T13:45:00.261Z,2.03
2022-10-11T13:47:30.832Z,2.38
2022-10-11T13:50:11.885Z,2.65
2022-10-11T13:52:53.632Z,2.70
2022-10-11T13:55:27.742Z,2.42
2022-10-11T13:57:57.538Z,2.33
2022-10-11T14:00:33.051Z,2.15
2022-10-11T14:03:05.107Z,1.70
2022-10-11T14:05:37.923Z,2.15
2022-10-11T14:08:08.599Z,2.33
2022-10-11T14:10:36.747Z,1.98
2022-10-11T14:13:08.305Z,2.38
2022-10-11T14:15:38.047Z,1.95
2022-10-11T14:18:35.521Z,2.17
2022-10-11T14:21:33.654Z,2.25
2022-10-11T14:24:04.975Z,2.35
2022-10-11T14:26:35.677Z,2.03
2022-10-11T14:29:08.007Z,2.22
2022-10-11T14:31:41.271Z,2.47
2022-10-11T14:34:16.702Z,2.92
2022-10-11T14:36:46.109Z,2.40
2022-10-11T14:39:17.624Z,1.83
2022-10-11T14:41:46.065Z,2.67
2022-10-11T14:44:14.856Z,2.17
2022-10-11T14:46:42.874Z,2.30
2022-10-11T14:49:15.661Z,2.00
2022-10-11T14:51:47.174Z,1.63
2022-10-11T14:54:16.339Z,1.95
2022-10-11T14:56:44.329Z,2.65
2022-10-11T14:59:15.252Z,2.20
2022-10-11T15:01:43.473Z,2.72
2022-10-11T15:04:11.509Z,2.50
2022-10-11T15:06:42.679Z,2.28
2022-10-11T15:09:12.056Z,2.53
2022-10-11T15:11:40.630Z,2.17
2022-10-11T15:14:08.797Z,1.83
2022-10-11T15:16:36.791Z,1.80
2022-10-11T15:19:04.903Z,2.00
2022-10-11T15:21:33.248Z,2.17
2022-10-11T15:24:01.322Z,2.22
2022-10-11T15:26:31.021Z,2.03
2022-10-11T15:28:59.397Z,2.20
2022-10-11T15:31:27.471Z,2.10
2022-10-11T15:33:59.351Z,2.10
2022-10-11T15:36:28.684Z,2.10
2022-10-11T15:38:56.986Z,2.35
2022-10-11T15:41:25.335Z,2.17
2022-10-11T15:43:55.008Z,1.88
2022-10-11T15:46:24.165Z,2.47
2022-10-11T15:48:53.455Z,2.17
2022-10-11T15:51:21.498Z,2.47
2022-10-11T15:53:49.490Z,2.30
2022-10-11T15:56:19.369Z,1.92
2022-10-11T15:58:47.786Z,2.30
2022-10-11T16:01:19.631Z,1.95
2022-10-11T16:03:49.298Z,2.15
2022-10-11T16:06:17.948Z,2.00
2022-10-11T16:08:46.143Z,2.05
2022-10-11T16:11:14.902Z,2.00
2022-10-11T16:13:43.008Z,2.15
2022-10-11T16:16:12.947Z,2.08
2022-10-11T16:18:42.316Z,2.50
2022-10-11T16:21:12.918Z,2.38
2022-10-11T16:23:41.039Z,2.35
2022-10-11T16:26:13.312Z,2.75
2022-10-11T16:28:42.380Z,2.45
2022-10-11T16:31:12.702Z,2.20
2022-10-11T16:33:46.481Z,2.60
2022-10-11T16:36:36.903Z,2.38
2022-10-11T16:39:08.564Z,2.58
2022-10-11T16:41:36.800Z,2.63
2022-10-11T16:44:05.412Z,2.58
2022-10-11T16:46:34.256Z,2.90
2022-10-11T16:49:03.666Z,3.63
2022-10-11T16:51:31.737Z,3.60
2022-10-11T16:53:59.816Z,4.38
2022-10-11T16:56:28.197Z,3.25
2022-10-11T16:58:56.385Z,4.05
2022-10-11T17:01:24.717Z,3.35
2022-10-11T17:03:53.308Z,5.35
2022-10-11T17:06:22.848Z,4.22
2022-10-11T17:08:51.387Z,3.95
2022-10-11T17:11:21.581Z,3.35
2022-10-11T17:13:50.600Z,3.42
2022-10-11T17:16:18.838Z,3.55
2022-10-11T17:18:46.955Z,3.25
2022-10-11T17:21:16.940Z,3.75
2022-10-11T17:23:46.812Z,3.17
2022-10-11T17:26:18.075Z,3.05
2022-10-11T17:28:46.557Z,5.10
2022-10-11T17:31:14.697Z,3.30
2022-10-11T17:33:42.966Z,2.90
2022-10-11T17:36:17.294Z,3.17
2022-10-11T17:38:46.719Z,3.28
2022-10-11T17:41:15.224Z,3.35
2022-10-11T17:43:43.621Z,3.60
2022-10-11T17:46:13.668Z,2.97
2022-10-11T17:48:42.036Z,3.88
2022-10-11T17:51:12.537Z,4.10
2022-10-11T17:53:40.778Z,2.97
2022-10-11T17:56:13.097Z,2.75
2022-10-11T17:58:41.528Z,3.13
2022-10-11T18:01:11.959Z,3.05
2022-10-11T18:03:40.367Z,3.40
2022-10-11T18:06:10.030Z,3.17
2022-10-11T18:08:40.581Z,3.25
2022-10-11T18:11:14.319Z,3.63
2022-10-11T18:13:46.182Z,3.50
2022-10-11T18:16:15.353Z,4.00
2022-10-11T18:18:44.183Z,3.33
2022-10-11T18:21:12.980Z,2.97
2022-10-11T18:23:41.235Z,3.60
2022-10-11T18:26:12.377Z,3.72
2022-10-11T18:28:41.100Z,3.72
2022-10-11T18:31:13.552Z,4.03
2022-10-11T18:33:42.761Z,4.60
2022-10-11T18:36:13.484Z,4.22
2022-10-11T18:38:46.645Z,4.30
2022-10-11T18:41:18.467Z,4.20
2022-10-11T18:43:51.208Z,4.85
2022-10-11T18:46:20.286Z,4.28
2022-10-11T18:48:50.142Z,4.85
2022-10-11T18:51:20.881Z,4.60
2022-10-11T18:53:50.073Z,5.90
2022-10-11T18:56:21.660Z,5.70
2022-10-11T18:58:50.776Z,5.63
2022-10-11T19:01:20.865Z,5.13
2022-10-11T19:03:53.454Z,7.13
2022-10-11T19:06:23.326Z,9.93
2022-10-11T19:08:52.995Z,5.70
2022-10-11T19:11:25.278Z,7.53
2022-10-11T19:13:57.327Z,7.68
2022-10-11T19:16:26.694Z,10.55
2022-10-11T19:18:54.938Z,8.68
2022-10-11T19:21:23.189Z,11.40
2022-10-11T19:23:51.807Z,9.05
2022-10-11T19:26:22.798Z,8.73
2022-10-11T19:28:56.259Z,5.60
2022-10-11T19:31:24.822Z,9.65
2022-10-11T19:33:53.037Z,8.70
2022-10-11T19:36:21.580Z,8.95
2022-10-11T19:38:51.021Z,8.30
2022-10-11T19:41:20.676Z,6.97
2022-10-11T19:43:51.326Z,6.57
2022-10-11T19:46:44.383Z,6.77
2022-10-11T19:49:09.679Z,6.57
2022-10-11T19:51:38.343Z,7.93
2022-10-11T19:54:08.210Z,9.43
2022-10-11T19:56:36.771Z,9.10
2022-10-11T19:59:07.384Z,9.17
2022-10-11T20:01:37.462Z,7.90
2022-10-11T20:04:07.340Z,7.87
2022-10-11T20:06:38.479Z,6.73
2022-10-11T20:09:29.442Z,6.50
2022-10-11T20:11:55.144Z,5.93
2022-10-11T20:14:24.713Z,6.97
2022-10-11T20:16:52.845Z,6.77
2022-10-11T20:19:24.865Z,6.63
2022-10-11T20:21:54.463Z,8.27
2022-10-11T20:24:22.482Z,7.17
2022-10-11T20:26:50.516Z,8.07
2022-10-11T20:29:18.472Z,6.67
2022-10-11T20:31:48.004Z,7.43
2022-10-11T20:34:16.015Z,8.10
2022-10-11T20:36:48.972Z,7.77
2022-10-11T20:39:17.914Z,7.47
2022-10-11T20:41:46.225Z,7.83
2022-10-11T20:44:16.077Z,7.50
2022-10-11T20:46:44.429Z,7.30
2022-10-11T20:49:14.141Z,7.57
2022-10-11T20:51:43.878Z,7.37
2022-10-11T20:54:13.640Z,6.93
2022-10-11T20:56:41.860Z,7.23
2022-10-11T20:59:11.134Z,7.17
2022-10-11T21:01:41.380Z,7.00
2022-10-11T21:04:17.603Z,7.60
2022-10-11T21:06:45.753Z,6.63
2022-10-11T21:09:16.406Z,6.63
2022-10-11T21:11:45.345Z,6.17
2022-10-11T21:14:13.404Z,6.13
2022-10-11T21:16:41.989Z,5.67
2022-10-11T21:19:15.943Z,6.50
2022-10-11T21:21:50.930Z,6.47
2022-10-11T21:24:20.690Z,6.63
2022-10-11T21:26:48.824Z,7.43
2022-10-11T21:29:16.920Z,6.17
2022-10-11T21:31:44.941Z,5.63
2022-10-11T21:34:12.967Z,5.60
2022-10-11T21:36:42.531Z,5.23
2022-10-11T21:39:10.914Z,5.33
2022-10-11T21:41:38.954Z,5.63
2022-10-11T21:44:06.986Z,5.77
2022-10-11T21:47:05.649Z,5.17
2022-10-11T21:49:23.935Z,4.93
2022-10-11T21:51:53.311Z,5.40
2022-10-11T21:54:21.650Z,4.60
2022-10-11T21:56:49.705Z,5.50
2022-10-11T21:59:17.789Z,4.60
2022-10-11T22:01:45.994Z,5.40
2022-10-11T22:04:14.010Z,5.30
2022-10-11T22:06:42.098Z,5.10
2022-10-11T22:09:11.504Z,4.87
2022-10-11T22:11:39.565Z,4.77
2022-10-11T22:14:07.650Z,5.03
2022-10-11T22:16:36.166Z,4.70
2022-10-11T22:19:04.775Z,5.00
2022-10-11T22:21:32.919Z,4.47
2022-10-11T22:24:00.931Z,4.83
2022-10-11T22:26:31.892Z,5.07
2022-10-11T22:29:00.808Z,4.73
2022-10-11T22:31:29.742Z,4.97
2022-10-11T22:33:58.874Z,4.60
2022-10-11T22:36:27.193Z,4.27
2022-10-11T22:38:55.872Z,5.00
2022-10-11T22:41:24.568Z,4.37
2022-10-11T22:43:53.984Z,4.60
2022-10-11T22:46:22.004Z,4.30
2022-10-11T22:48:50.058Z,4.30
2022-10-11T22:51:18.218Z,5.10
2022-10-11T22:53:46.398Z,4.20
2022-10-11T22:56:14.405Z,4.30
2022-10-11T22:58:42.441Z,4.53
2022-10-11T23:01:14.522Z,3.80
2022-10-11T23:03:42.667Z,4.07
2022-10-11T23:06:10.717Z,4.13
2022-10-11T23:08:38.722Z,4.10
2022-10-11T23:11:07.847Z,4.13
2022-10-11T23:13:36.484Z,4.13
2022-10-11T23:16:07.675Z,4.07
2022-10-11T23:18:37.307Z,4.20
2022-10-11T23:21:06.712Z,4.33
2022-10-11T23:23:34.992Z,4.10
2022-10-11T23:26:04.803Z,4.00
2022-10-11T23:28:32.844Z,4.67
2022-10-11T23:31:01.216Z,4.17
2022-10-11T23:33:30.147Z,3.97
2022-10-11T23:35:59.536Z,4.00
2022-10-11T23:38:27.545Z,3.80
2022-10-11T23:40:55.604Z,3.40
2022-10-11T23:43:24.116Z,3.60
2022-10-11T23:45:54.003Z,3.50
2022-10-11T23:48:22.013Z,4.07
2022-10-11T23:50:50.147Z,4.03
2022-10-11T23:53:19.495Z,4.63
2022-10-11T23:55:47.666Z,7.20
2022-10-11T23:58:15.652Z,3.93
